Time,TemperatureF,DewpointF,PressureIn,WindDirection,WindDirectionDegrees,WindSpeedMPH,WindSpeedGustMPH,Humidity,HourlyPrecipIn,Conditions,Clouds,dailyrainin,SoftwareType,DateUTC
2013-06-21 08:21:00,69.6,57.8,30.09,SSW,202,4.0,4.0,66,0.00,,-RA,0.00,VWS V14.01,2013-06-21 12:21:00,
2013-06-21 08:26:00,70.2,58.3,30.09,ESE,112,1.3,1.3,66,0.00,,-RA,0.00,VWS V14.01,2013-06-21 12:26:00,
2013-06-21 08:31:00,70.5,58.6,30.09,ESE,112,2.5,2.5,66,0.00,,-RA,0.00,VWS V14.01,2013-06-21 12:31:00,
2013-06-21 08:36:00,70.9,58.5,30.09,SSE,158,0.0,0.0,65,0.00,,-RA,0.00,VWS V14.01,2013-06-21 12:36:00,
2013-06-21 08:41:00,71.2,58.9,30.09,SSW,202,0.0,0.0,65,0.00,,-RA,0.00,VWS V14.01,2013-06-21 12:41:00,
2013-06-21 08:46:00,71.6,58.8,30.09,SSE,158,3.6,3.6,64,0.00,,-RA,0.00,VWS V14.01,2013-06-21 12:46:00,
2013-06-21 08:51:00,72.0,59.1,30.09,SSE,158,5.8,5.8,64,0.00,,-RA,0.00,VWS V14.01,2013-06-21 12:51:00,
2013-06-21 08:56:00,72.3,59.5,30.09,SSE,158,4.9,4.9,64,0.00,,-RA,0.00,VWS V14.01,2013-06-21 12:56:00,
2013-06-21 09:01:00,72.9,59.5,30.09,ESE,112,2.9,2.9,63,0.00,,-RA,0.00,VWS V14.01,2013-06-21 13:01:00,
2013-06-21 09:06:00,73.2,59.9,30.09,South,180,4.0,4.0,63,0.00,,-RA,0.00,VWS V14.01,2013-06-21 13:06:00,
2013-06-21 09:11:00,73.8,59.9,30.09,ESE,112,2.2,2.2,62,0.00,,-RA,0.00,VWS V14.01,2013-06-21 13:11:00,
2013-06-21 09:16:00,74.3,59.5,30.09,SSE,158,1.1,1.1,60,0.00,,-RA,0.00,VWS V14.01,2013-06-21 13:16:00,
2013-06-21 09:21:00,74.8,60.0,30.09,West,270,0.0,0.0,60,0.00,,-RA,0.00,VWS V14.01,2013-06-21 13:21:00,
2013-06-21 09:26:00,75.4,59.6,30.09,WSW,248,0.0,0.0,58,0.00,,-RA,0.00,VWS V14.01,2013-06-21 13:26:00,
2013-06-21 09:31:00,76.3,59.5,30.09,SSE,158,2.0,2.0,56,0.00,,-RA,0.00,VWS V14.01,2013-06-21 13:31:00,
2013-06-21 09:36:00,77.2,59.8,30.09,NNE,22,0.0,0.0,55,0.00,,-RA,0.00,VWS V14.01,2013-06-21 13:36:00,
2013-06-21 09:41:00,78.4,60.4,30.09,West,270,0.0,0.0,54,0.00,,-RA,0.00,VWS V14.01,2013-06-21 13:41:00,
2013-06-21 09:46:00,79.5,58.7,30.09,WSW,248,3.4,3.4,49,0.00,,-RA,0.00,VWS V14.01,2013-06-21 13:46:00,
2013-06-21 09:51:00,80.1,58.0,30.09,South,180,5.6,5.6,47,0.00,,-RA,0.00,VWS V14.01,2013-06-21 13:51:00,
2013-06-21 09:56:00,81.0,59.4,30.09,SE,135,0.0,0.0,48,0.00,,-RA,0.00,VWS V14.01,2013-06-21 13:56:00,
2013-06-21 10:01:00,81.9,59.1,30.09,SSE,158,3.4,3.4,46,0.00,,-RA,0.00,VWS V14.01,2013-06-21 14:01:00,
2013-06-21 10:06:00,82.0,58.0,30.09,ESE,112,3.8,3.8,44,0.00,,-RA,0.00,VWS V14.01,2013-06-21 14:06:00,
2013-06-21 10:11:00,82.8,58.7,30.09,SSE,158,6.0,6.0,44,0.00,,-RA,0.00,VWS V14.01,2013-06-21 14:11:00,
2013-06-21 10:16:00,82.8,59.3,30.09,SSE,158,0.0,0.0,45,0.00,,-RA,0.00,VWS V14.01,2013-06-21 14:16:00,
2013-06-21 10:21:00,83.3,59.1,30.09,SSW,202,3.6,3.6,44,0.00,,-RA,0.00,VWS V14.01,2013-06-21 14:21:00,
2013-06-21 10:26:00,83.3,57.2,30.09,SSE,158,5.4,5.4,41,0.00,,-RA,0.00,VWS V14.01,2013-06-21 14:26:00,
2013-06-21 10:31:00,83.7,58.2,30.09,South,180,3.1,3.1,42,0.00,,-RA,0.00,VWS V14.01,2013-06-21 14:31:00,
2013-06-21 10:36:00,83.5,58.0,30.09,South,180,0.0,0.0,42,0.00,,-RA,0.00,VWS V14.01,2013-06-21 14:36:00,
2013-06-21 10:41:00,83.5,58.7,30.09,WSW,248,2.9,2.9,43,0.00,,-RA,0.00,VWS V14.01,2013-06-21 14:41:00,
2013-06-21 10:46:00,83.7,58.2,30.09,SE,135,4.9,4.9,42,0.00,,-RA,0.00,VWS V14.01,2013-06-21 14:46:00,
2013-06-21 10:51:00,84.0,58.5,30.09,East,90,0.0,0.0,42,0.00,,-RA,0.00,VWS V14.01,2013-06-21 14:51:00,
2013-06-21 10:56:00,84.4,58.8,30.09,SSE,158,2.9,2.9,42,0.00,,-RA,0.00,VWS V14.01,2013-06-21 14:56:00,
2013-06-21 11:01:00,84.4,58.1,30.09,SSE,158,2.5,2.5,41,0.00,,-RA,0.00,VWS V14.01,2013-06-21 15:01:00,
2013-06-21 11:06:00,84.4,57.5,30.09,NW,315,0.0,0.0,40,0.00,,-RA,0.00,VWS V14.01,2013-06-21 15:06:00,
2013-06-21 11:11:00,84.9,58.6,30.09,South,180,1.6,1.6,41,0.00,,-RA,0.00,VWS V14.01,2013-06-21 15:11:00,
2013-06-21 11:16:00,85.1,58.8,30.12,SSE,158,4.0,4.0,41,0.00,,-RA,0.00,VWS V14.01,2013-06-21 15:16:00,
2013-06-21 11:21:00,85.1,58.8,30.12,South,180,2.9,2.9,41,0.00,,-RA,0.00,VWS V14.01,2013-06-21 15:21:00,
2013-06-21 11:26:00,85.5,59.1,30.12,West,270,0.0,0.0,41,0.00,,-RA,0.00,VWS V14.01,2013-06-21 15:26:00,
2013-06-21 11:31:00,85.6,57.9,30.09,ESE,112,3.6,3.6,39,0.00,,-RA,0.00,VWS V14.01,2013-06-21 15:31:00,
2013-06-21 11:36:00,85.8,58.7,30.09,SSE,158,6.7,6.7,40,0.00,,-RA,0.00,VWS V14.01,2013-06-21 15:36:00,
2013-06-21 11:41:00,85.8,58.0,30.09,North,0,3.4,3.4,39,0.00,,-RA,0.00,VWS V14.01,2013-06-21 15:41:00,
2013-06-21 11:46:00,86.2,57.6,30.09,SSE,158,0.0,0.0,38,0.00,,-RA,0.00,VWS V14.01,2013-06-21 15:46:00,
2013-06-21 11:51:00,86.4,57.0,30.09,South,180,1.3,1.3,37,0.00,,-RA,0.00,VWS V14.01,2013-06-21 15:51:00,
2013-06-21 11:56:00,86.4,56.3,30.09,NNW,338,2.5,2.5,36,0.00,,-RA,0.00,VWS V14.01,2013-06-21 15:56:00,
2013-06-21 12:01:00,86.0,57.5,30.09,South,180,2.9,2.9,38,0.00,,-RA,0.00,VWS V14.01,2013-06-21 16:01:00,
2013-06-21 12:06:00,86.0,55.2,30.09,SSW,202,6.5,6.5,35,0.00,,-RA,0.00,VWS V14.01,2013-06-21 16:06:00,
2013-06-21 12:11:00,86.0,56.7,30.09,SSE,158,0.9,0.9,37,0.00,,-RA,0.00,VWS V14.01,2013-06-21 16:11:00,
2013-06-21 12:16:00,86.2,57.6,30.09,SSE,158,2.7,2.7,38,0.00,,-RA,0.00,VWS V14.01,2013-06-21 16:16:00,
2013-06-21 12:21:00,86.2,56.9,30.09,SW,225,3.8,3.8,37,0.00,,-RA,0.00,VWS V14.01,2013-06-21 16:21:00,
2013-06-21 12:26:00,86.2,56.9,30.09,South,180,2.9,2.9,37,0.00,,-RA,0.00,VWS V14.01,2013-06-21 16:26:00,
2013-06-21 12:31:00,86.0,57.5,30.09,SW,225,2.0,2.0,38,0.00,,-RA,0.00,VWS V14.01,2013-06-21 16:31:00,
2013-06-21 12:36:00,85.5,56.2,30.09,SE,135,5.6,5.6,37,0.00,,-RA,0.00,VWS V14.01,2013-06-21 16:36:00,
2013-06-21 12:41:00,85.3,56.1,30.09,South,180,6.0,6.0,37,0.00,,-RA,0.00,VWS V14.01,2013-06-21 16:41:00,
2013-06-21 12:46:00,85.1,55.9,30.09,SSE,158,4.9,4.9,37,0.00,,-RA,0.00,VWS V14.01,2013-06-21 16:46:00,
2013-06-21 12:51:00,84.9,55.8,30.09,ESE,112,4.0,4.0,37,0.00,,-RA,0.00,VWS V14.01,2013-06-21 16:51:00,
2013-06-21 12:56:00,84.7,55.6,30.09,SSW,202,2.9,2.9,37,0.00,,-RA,0.00,VWS V14.01,2013-06-21 16:56:00,
2013-06-21 13:01:00,84.7,56.3,30.09,SW,225,4.0,4.0,38,0.00,,-RA,0.00,VWS V14.01,2013-06-21 17:01:00,
2013-06-21 13:07:00,85.1,56.7,30.09,ESE,112,0.0,0.0,38,0.00,,-RA,0.00,VWS V14.01,2013-06-21 17:07:00,
2013-06-21 13:12:00,85.3,56.8,30.09,WSW,248,4.3,4.3,38,0.00,,-RA,0.00,VWS V14.01,2013-06-21 17:12:00,
2013-06-21 13:17:00,85.5,57.0,30.09,SE,135,3.4,3.4,38,0.00,,-RA,0.00,VWS V14.01,2013-06-21 17:17:00,
2013-06-21 13:22:00,85.6,57.9,30.09,SW,225,0.0,0.0,39,0.00,,-RA,0.00,VWS V14.01,2013-06-21 17:22:00,
2013-06-21 13:27:00,85.6,57.9,30.09,SSW,202,0.0,0.0,39,0.00,,-RA,0.00,VWS V14.01,2013-06-21 17:27:00,
2013-06-21 13:32:00,85.6,57.1,30.09,SSW,202,1.6,1.6,38,0.00,,-RA,0.00,VWS V14.01,2013-06-21 17:32:00,
2013-06-21 13:37:00,85.6,57.1,30.09,SW,225,0.9,0.9,38,0.00,,-RA,0.00,VWS V14.01,2013-06-21 17:37:00,
2013-06-21 13:42:00,85.3,56.8,30.09,SSE,158,4.7,4.7,38,0.00,,-RA,0.00,VWS V14.01,2013-06-21 17:42:00,
2013-06-21 13:46:00,85.1,56.7,30.09,SSW,202,0.0,0.0,38,0.00,,-RA,0.00,VWS V14.01,2013-06-21 17:46:00,
2013-06-21 13:51:00,84.9,57.2,30.09,South,180,2.2,2.2,39,0.00,,-RA,0.00,VWS V14.01,2013-06-21 17:51:00,
2013-06-21 13:56:00,84.7,56.3,30.09,SSE,158,1.3,1.3,38,0.00,,-RA,0.00,VWS V14.01,2013-06-21 17:56:00,
2013-06-21 14:01:00,84.2,56.6,30.09,South,180,2.2,2.2,39,0.00,,-RA,0.00,VWS V14.01,2013-06-21 18:01:00,
2013-06-21 14:06:00,83.7,56.8,30.09,WSW,248,2.5,2.5,40,0.00,,-RA,0.00,VWS V14.01,2013-06-21 18:06:00,
2013-06-21 14:11:00,83.3,55.8,30.09,NW,315,0.9,0.9,39,0.00,,-RA,0.00,VWS V14.01,2013-06-21 18:11:00,
2013-06-21 14:16:00,83.1,55.6,30.09,SSE,158,6.5,6.5,39,0.00,,-RA,0.00,VWS V14.01,2013-06-21 18:16:00,
2013-06-21 14:22:00,82.8,56.0,30.09,SSW,202,0.0,0.0,40,0.00,,-RA,0.00,VWS V14.01,2013-06-21 18:22:00,
2013-06-21 14:23:00,82.8,56.0,30.09,South,180,3.1,3.1,40,0.00,,-RA,0.00,VWS V14.01,2013-06-21 18:23:00,
2013-06-21 14:24:00,82.8,56.0,30.09,SSE,158,3.8,3.8,40,0.00,,-RA,0.00,VWS V14.01,2013-06-21 18:24:00,
2013-06-21 14:29:00,83.3,56.5,30.09,WNW,292,1.6,1.6,40,0.00,,-RA,0.00,VWS V14.01,2013-06-21 18:29:00,
2013-06-21 14:34:00,83.3,56.5,30.09,South,180,2.2,2.2,40,0.00,,-RA,0.00,VWS V14.01,2013-06-21 18:34:00,
2013-06-21 14:39:00,83.7,57.5,30.09,SSE,158,2.7,2.7,41,0.00,,-RA,0.00,VWS V14.01,2013-06-21 18:39:00,
2013-06-21 14:44:00,83.8,57.7,30.09,ENE,68,3.6,3.6,41,0.00,,-RA,0.00,VWS V14.01,2013-06-21 18:44:00,
2013-06-21 14:45:00,83.8,57.7,30.09,WNW,292,1.1,1.1,41,0.00,,-RA,0.00,VWS V14.01,2013-06-21 18:45:00,
2013-06-21 14:46:00,83.7,57.5,30.09,SSW,202,0.0,0.0,41,0.00,,-RA,0.00,VWS V14.01,2013-06-21 18:46:00,
2013-06-21 14:51:00,83.7,56.8,30.09,ESE,112,2.9,2.9,40,0.00,,-RA,0.00,VWS V14.01,2013-06-21 18:51:00,
2013-06-21 14:56:00,83.5,56.6,30.09,NNW,338,2.7,2.7,40,0.00,,-RA,0.00,VWS V14.01,2013-06-21 18:56:00,
2013-06-21 15:01:00,83.5,56.6,30.06,South,180,5.8,5.8,40,0.00,,-RA,0.00,VWS V14.01,2013-06-21 19:01:00,
2013-06-21 15:06:00,83.3,56.5,30.06,SSW,202,2.7,2.7,40,0.00,,-RA,0.00,VWS V14.01,2013-06-21 19:06:00,
2013-06-21 15:11:00,83.3,56.5,30.06,South,180,0.9,0.9,40,0.00,,-RA,0.00,VWS V14.01,2013-06-21 19:11:00,
2013-06-21 15:16:00,83.5,56.6,30.06,SSE,158,3.4,3.4,40,0.00,,-RA,0.00,VWS V14.01,2013-06-21 19:16:00,
2013-06-21 15:20:00,83.7,56.8,30.06,SE,135,3.4,3.4,40,0.00,,-RA,0.00,VWS V14.01,2013-06-21 19:20:00,
2013-06-21 15:25:00,83.7,56.8,30.06,SSW,202,3.4,3.4,40,0.00,,-RA,0.00,VWS V14.01,2013-06-21 19:25:00,
2013-06-21 15:30:00,83.5,56.6,30.03,ESE,112,2.7,2.7,40,0.00,,-RA,0.00,VWS V14.01,2013-06-21 19:30:00,
2013-06-21 15:35:00,83.3,56.5,30.03,SSE,158,2.7,2.7,40,0.00,,-RA,0.00,VWS V14.01,2013-06-21 19:35:00,
2013-06-21 15:40:00,83.5,56.6,30.03,SSE,158,5.4,5.4,40,0.00,,-RA,0.00,VWS V14.01,2013-06-21 19:40:00,
2013-06-21 15:42:00,83.5,56.6,30.03,SE,135,6.5,6.5,40,0.00,,-RA,0.00,VWS V14.01,2013-06-21 19:42:00,
2013-06-21 15:43:00,83.5,56.6,30.03,South,180,7.2,7.2,40,0.00,,-RA,0.00,VWS V14.01,2013-06-21 19:43:00,
2013-06-21 15:48:00,83.1,56.3,30.03,NNE,22,6.3,6.3,40,0.00,,-RA,0.00,VWS V14.01,2013-06-21 19:48:00,
2013-06-21 15:53:00,82.9,56.8,30.03,SSE,158,6.0,6.0,41,0.00,,-RA,0.00,VWS V14.01,2013-06-21 19:53:00,
2013-06-21 15:58:00,82.9,57.5,30.00,SSW,202,3.1,3.1,42,0.00,,-RA,0.00,VWS V14.01,2013-06-21 19:58:00,
2013-06-21 16:03:00,82.9,56.8,30.00,SSW,202,3.6,3.6,41,0.00,,-RA,0.00,VWS V14.01,2013-06-21 20:03:00,
2013-06-21 16:04:00,82.9,57.5,30.00,SSE,158,17.0,17.0,42,0.00,,-RA,0.00,VWS V14.01,2013-06-21 20:04:00,
2013-06-21 16:08:00,82.8,57.3,30.00,SSE,158,2.9,2.9,42,0.00,,-RA,0.00,VWS V14.01,2013-06-21 20:08:00,
2013-06-21 16:11:00,82.8,57.3,30.00,ESE,112,2.7,2.7,42,0.00,,-RA,0.00,VWS V14.01,2013-06-21 20:11:00,
2013-06-21 16:14:00,82.6,57.2,29.97,ENE,68,5.8,5.8,42,0.00,,-RA,0.00,VWS V14.01,2013-06-21 20:14:00,
2013-06-21 16:19:00,82.4,57.0,29.97,SSE,158,3.1,3.1,42,0.00,,-RA,0.00,VWS V14.01,2013-06-21 20:19:00,
2013-06-21 16:24:00,82.2,56.9,29.97,ESE,112,6.0,6.0,42,0.00,,-RA,0.00,VWS V14.01,2013-06-21 20:24:00,
2013-06-21 16:29:00,82.0,57.4,29.97,SW,225,7.6,7.6,43,0.00,,-RA,0.00,VWS V14.01,2013-06-21 20:29:00,
2013-06-21 16:34:00,81.9,57.2,29.97,SSE,158,4.7,4.7,43,0.00,,-RA,0.00,VWS V14.01,2013-06-21 20:34:00,
2013-06-21 16:39:00,81.9,57.8,29.97,SE,135,4.3,4.3,44,0.00,,-RA,0.00,VWS V14.01,2013-06-21 20:39:00,
2013-06-21 16:44:00,81.9,57.2,29.97,SSE,158,3.4,3.4,43,0.00,,-RA,0.00,VWS V14.01,2013-06-21 20:44:00,
2013-06-21 16:49:00,81.9,57.2,29.97,South,180,5.8,5.8,43,0.00,,-RA,0.00,VWS V14.01,2013-06-21 20:49:00,
2013-06-21 16:54:00,82.0,58.0,29.97,ESE,112,3.6,3.6,44,0.00,,-RA,0.00,VWS V14.01,2013-06-21 20:54:00,
2013-06-21 16:59:00,82.2,57.5,29.94,SSE,158,5.6,5.6,43,0.00,,-RA,0.00,VWS V14.01,2013-06-21 20:59:00,
2013-06-21 17:04:00,82.0,57.4,29.94,South,180,7.6,7.6,43,0.00,,-RA,0.00,VWS V14.01,2013-06-21 21:04:00,
2013-06-21 17:09:00,81.9,57.2,29.94,South,180,8.1,8.1,43,0.00,,-RA,0.00,VWS V14.01,2013-06-21 21:09:00,
2013-06-21 17:14:00,81.9,57.8,29.94,SSE,158,5.4,5.4,44,0.00,,-RA,0.00,VWS V14.01,2013-06-21 21:14:00,
2013-06-21 17:19:00,82.0,58.0,29.94,ENE,68,5.4,5.4,44,0.00,,-RA,0.00,VWS V14.01,2013-06-21 21:19:00,
2013-06-21 17:24:00,82.0,58.0,29.94,SSE,158,8.5,8.5,44,0.00,,-RA,0.00,VWS V14.01,2013-06-21 21:24:00,
2013-06-21 17:29:00,82.0,58.0,29.97,ESE,112,1.3,1.3,44,0.00,,-RA,0.00,VWS V14.01,2013-06-21 21:29:00,
2013-06-21 17:34:00,82.0,58.0,29.97,ESE,112,5.6,5.6,44,0.00,,-RA,0.00,VWS V14.01,2013-06-21 21:34:00,
2013-06-21 17:39:00,82.0,58.0,29.97,SSW,202,4.9,4.9,44,0.00,,-RA,0.00,VWS V14.01,2013-06-21 21:39:00,
2013-06-21 17:44:00,82.0,58.0,29.97,West,270,2.9,2.9,44,0.00,,-RA,0.00,VWS V14.01,2013-06-21 21:44:00,
2013-06-21 17:49:00,82.0,58.0,29.97,SE,135,3.6,3.6,44,0.00,,-RA,0.00,VWS V14.01,2013-06-21 21:49:00,
2013-06-21 17:54:00,82.2,58.2,29.97,ENE,68,2.0,2.0,44,0.00,,-RA,0.00,VWS V14.01,2013-06-21 21:54:00,
2013-06-21 17:59:00,82.4,57.7,29.97,WSW,248,3.8,3.8,43,0.00,,-RA,0.00,VWS V14.01,2013-06-21 21:59:00,
2013-06-21 18:04:00,82.4,57.7,29.97,SSW,202,2.9,2.9,43,0.00,,-RA,0.00,VWS V14.01,2013-06-21 22:04:00,
2013-06-21 18:09:00,82.4,57.7,29.97,South,180,7.4,7.4,43,0.00,,-RA,0.00,VWS V14.01,2013-06-21 22:09:00,
2013-06-21 18:14:00,82.2,58.2,29.97,SSE,158,3.4,3.4,44,0.00,,-RA,0.00,VWS V14.01,2013-06-21 22:14:00,
2013-06-21 18:19:00,82.2,58.2,29.97,SW,225,2.7,2.7,44,0.00,,-RA,0.00,VWS V14.01,2013-06-21 22:19:00,
2013-06-21 18:24:00,82.2,58.2,29.97,SE,135,6.0,6.0,44,0.00,,-RA,0.00,VWS V14.01,2013-06-21 22:24:00,
2013-06-21 18:29:00,82.2,58.2,29.97,South,180,4.0,4.0,44,0.00,,-RA,0.00,VWS V14.01,2013-06-21 22:29:00,
2013-06-21 18:34:00,82.0,58.0,29.97,SSE,158,2.7,2.7,44,0.00,,-RA,0.00,VWS V14.01,2013-06-21 22:34:00,
2013-06-21 18:39:00,82.2,58.2,29.97,SSW,202,2.0,2.0,44,0.00,,-RA,0.00,VWS V14.01,2013-06-21 22:39:00,
2013-06-21 18:44:00,82.4,58.3,29.94,ESE,112,2.9,2.9,44,0.00,,-RA,0.00,VWS V14.01,2013-06-21 22:44:00,
2013-06-21 18:49:00,82.6,57.8,29.94,SSE,158,0.9,0.9,43,0.00,,-RA,0.00,VWS V14.01,2013-06-21 22:49:00,
2013-06-21 18:54:00,82.8,58.0,29.94,South,180,6.0,6.0,43,0.00,,-RA,0.00,VWS V14.01,2013-06-21 22:54:00,
2013-06-21 18:59:00,82.4,57.7,29.97,South,180,0.0,0.0,43,0.00,,-RA,0.00,VWS V14.01,2013-06-21 22:59:00,
2013-06-21 19:04:00,82.2,57.5,29.97,SSE,158,2.0,2.0,43,0.00,,-RA,0.00,VWS V14.01,2013-06-21 23:04:00,
2013-06-21 19:09:00,81.9,57.2,29.97,SSW,202,2.5,2.5,43,0.00,,-RA,0.00,VWS V14.01,2013-06-21 23:09:00,
2013-06-21 19:14:00,81.7,57.0,29.97,East,90,2.9,2.9,43,0.00,,-RA,0.00,VWS V14.01,2013-06-21 23:14:00,
2013-06-21 19:19:00,81.5,57.5,29.97,SSW,202,4.0,4.0,44,0.00,,-RA,0.00,VWS V14.01,2013-06-21 23:19:00,
2013-06-21 19:24:00,81.3,57.3,29.97,SSE,158,3.1,3.1,44,0.00,,-RA,0.00,VWS V14.01,2013-06-21 23:24:00,
2013-06-21 19:29:00,81.0,57.0,29.97,ESE,112,0.9,0.9,44,0.00,,-RA,0.00,VWS V14.01,2013-06-21 23:29:00,
2013-06-21 19:34:00,80.8,56.9,29.97,South,180,3.1,3.1,44,0.00,,-RA,0.00,VWS V14.01,2013-06-21 23:34:00,
2013-06-21 19:39:00,80.8,57.5,29.97,NNW,338,1.6,1.6,45,0.00,,-RA,0.00,VWS V14.01,2013-06-21 23:39:00,
2013-06-21 19:44:00,80.8,57.5,30.00,South,180,0.0,0.0,45,0.00,,-RA,0.00,VWS V14.01,2013-06-21 23:44:00,
2013-06-21 19:49:00,80.8,57.5,30.00,ESE,112,2.0,2.0,45,0.00,,-RA,0.00,VWS V14.01,2013-06-21 23:49:00,
2013-06-21 19:54:00,80.8,57.5,30.00,NE,45,0.0,0.0,45,0.00,,-RA,0.00,VWS V14.01,2013-06-21 23:54:00,
2013-06-21 19:59:00,80.6,57.3,29.97,WSW,248,0.9,0.9,45,0.00,,-RA,0.00,VWS V14.01,2013-06-21 23:59:00,
2013-06-21 20:04:00,80.4,57.2,29.97,ESE,112,3.1,3.1,45,0.00,,-RA,0.00,VWS V14.01,2013-06-22 00:04:00,
2013-06-21 20:09:00,80.2,57.0,29.97,ESE,112,0.9,0.9,45,0.00,,-RA,0.00,VWS V14.01,2013-06-22 00:09:00,
2013-06-21 20:14:00,80.1,56.8,29.97,WNW,292,2.5,2.5,45,0.00,,-RA,0.00,VWS V14.01,2013-06-22 00:14:00,
2013-06-21 20:19:00,79.7,56.5,29.97,SSW,202,6.5,6.5,45,0.00,,-RA,0.00,VWS V14.01,2013-06-22 00:19:00,
2013-06-21 20:24:00,79.3,56.2,29.97,ESE,112,0.0,0.0,45,0.00,,-RA,0.00,VWS V14.01,2013-06-22 00:24:00,
2013-06-21 20:29:00,79.2,56.6,29.97,South,180,4.0,4.0,46,0.00,,-RA,0.00,VWS V14.01,2013-06-22 00:29:00,
2013-06-21 20:34:00,79.0,56.5,29.97,South,180,3.6,3.6,46,0.00,,-RA,0.00,VWS V14.01,2013-06-22 00:34:00,
2013-06-21 20:39:00,78.8,56.3,29.97,SSW,202,0.0,0.0,46,0.00,,-RA,0.00,VWS V14.01,2013-06-22 00:39:00,
2013-06-21 20:44:00,78.4,56.6,30.00,SE,135,4.3,4.3,47,0.00,,-RA,0.00,VWS V14.01,2013-06-22 00:44:00,
2013-06-21 20:49:00,78.1,56.8,30.00,SSW,202,0.0,0.0,48,0.00,,-RA,0.00,VWS V14.01,2013-06-22 00:49:00,
2013-06-21 20:54:00,77.7,56.5,30.00,West,270,0.9,0.9,48,0.00,,-RA,0.00,VWS V14.01,2013-06-22 00:54:00,
2013-06-21 20:59:00,77.5,56.9,29.97,SSE,158,0.0,0.0,49,0.00,,-RA,0.00,VWS V14.01,2013-06-22 00:59:00,
2013-06-21 21:04:00,77.2,56.6,29.97,SSE,158,0.0,0.0,49,0.00,,-RA,0.00,VWS V14.01,2013-06-22 01:04:00,
2013-06-21 21:09:00,76.8,56.8,29.97,NNE,22,0.0,0.0,50,0.00,,-RA,0.00,VWS V14.01,2013-06-22 01:09:00,
2013-06-21 21:14:00,76.5,57.0,29.97,West,270,0.0,0.0,51,0.00,,-RA,0.00,VWS V14.01,2013-06-22 01:14:00,
2013-06-21 21:19:00,76.1,57.2,29.97,ESE,112,0.0,0.0,52,0.00,,-RA,0.00,VWS V14.01,2013-06-22 01:19:00,
2013-06-21 21:24:00,76.1,57.8,29.97,SSE,158,2.9,2.9,53,0.00,,-RA,0.00,VWS V14.01,2013-06-22 01:24:00,
2013-06-21 21:29:00,75.9,57.0,30.00,WSW,248,0.0,0.0,52,0.00,,-RA,0.00,VWS V14.01,2013-06-22 01:29:00,
2013-06-21 21:34:00,75.7,57.4,30.00,WNW,292,0.0,0.0,53,0.00,,-RA,0.00,VWS V14.01,2013-06-22 01:34:00,
2013-06-21 21:39:00,75.6,57.2,30.00,SSE,158,0.0,0.0,53,0.00,,-RA,0.00,VWS V14.01,2013-06-22 01:39:00,
2013-06-21 21:44:00,75.6,57.8,30.00,SSW,202,0.0,0.0,54,0.00,,-RA,0.00,VWS V14.01,2013-06-22 01:44:00,
2013-06-21 21:49:00,75.6,57.8,30.00,SSE,158,0.0,0.0,54,0.00,,-RA,0.00,VWS V14.01,2013-06-22 01:49:00,
2013-06-21 21:54:00,75.4,57.6,30.00,West,270,0.0,0.0,54,0.00,,-RA,0.00,VWS V14.01,2013-06-22 01:54:00,
2013-06-21 21:59:00,75.2,57.9,30.00,SSW,202,0.0,0.0,55,0.00,,-RA,0.00,VWS V14.01,2013-06-22 01:59:00,
2013-06-21 22:04:00,75.0,57.8,30.00,South,180,0.0,0.0,55,0.00,,-RA,0.00,VWS V14.01,2013-06-22 02:04:00,
2013-06-21 22:09:00,74.8,58.1,30.00,SSW,202,0.0,0.0,56,0.00,,-RA,0.00,VWS V14.01,2013-06-22 02:09:00,
2013-06-21 22:14:00,74.5,57.8,30.00,SSE,158,0.0,0.0,56,0.00,,-RA,0.00,VWS V14.01,2013-06-22 02:14:00,
2013-06-21 22:19:00,74.3,58.1,30.00,WNW,292,0.0,0.0,57,0.00,,-RA,0.00,VWS V14.01,2013-06-22 02:19:00,
2013-06-21 22:24:00,74.1,58.4,30.00,SE,135,0.0,0.0,58,0.00,,-RA,0.00,VWS V14.01,2013-06-22 02:24:00,
2013-06-21 22:29:00,73.9,58.2,30.00,West,270,0.0,0.0,58,0.00,,-RA,0.00,VWS V14.01,2013-06-22 02:29:00,
2013-06-21 22:34:00,73.8,58.5,30.00,NNW,338,0.0,0.0,59,0.00,,-RA,0.00,VWS V14.01,2013-06-22 02:34:00,
2013-06-21 22:39:00,73.8,58.5,30.00,West,270,0.0,0.0,59,0.00,,-RA,0.00,VWS V14.01,2013-06-22 02:39:00,
2013-06-21 22:44:00,73.6,58.8,30.00,SSE,158,0.0,0.0,60,0.00,,-RA,0.00,VWS V14.01,2013-06-22 02:44:00,
2013-06-21 22:49:00,73.4,58.7,30.00,SSW,202,0.0,0.0,60,0.00,,-RA,0.00,VWS V14.01,2013-06-22 02:49:00,
2013-06-21 22:54:00,73.4,59.2,30.00,South,180,0.0,0.0,61,0.00,,-RA,0.00,VWS V14.01,2013-06-22 02:54:00,
2013-06-21 22:59:00,73.2,59.4,30.03,South,180,0.0,0.0,62,0.00,,-RA,0.00,VWS V14.01,2013-06-22 02:59:00,
2013-06-21 23:04:00,73.2,59.4,30.03,SSW,202,0.0,0.0,62,0.00,,-RA,0.00,VWS V14.01,2013-06-22 03:04:00,
2013-06-21 23:09:00,73.0,59.3,30.03,SE,135,0.0,0.0,62,0.00,,-RA,0.00,VWS V14.01,2013-06-22 03:09:00,
2013-06-21 23:14:00,73.0,59.7,30.03,SSE,158,0.0,0.0,63,0.00,,-RA,0.00,VWS V14.01,2013-06-22 03:14:00,
2013-06-21 23:19:00,73.0,59.7,30.03,WNW,292,0.0,0.0,63,0.00,,-RA,0.00,VWS V14.01,2013-06-22 03:19:00,
2013-06-21 23:24:00,72.9,59.5,30.03,SSW,202,0.0,0.0,63,0.00,,-RA,0.00,VWS V14.01,2013-06-22 03:24:00,
2013-06-21 23:29:00,72.9,60.0,30.03,WNW,292,2.2,2.2,64,0.00,,-RA,0.00,VWS V14.01,2013-06-22 03:29:00,
2013-06-21 23:34:00,72.7,59.8,30.03,SSW,202,0.0,0.0,64,0.00,,-RA,0.00,VWS V14.01,2013-06-22 03:34:00,
2013-06-21 23:39:00,72.7,60.2,30.03,SW,225,0.0,0.0,65,0.00,,-RA,0.00,VWS V14.01,2013-06-22 03:39:00,
2013-06-21 23:44:00,72.5,60.1,30.03,East,90,0.0,0.0,65,0.00,,-RA,0.00,VWS V14.01,2013-06-22 03:44:00,
2013-06-21 23:49:00,72.3,60.3,30.03,West,270,3.1,3.1,66,0.00,,-RA,0.00,VWS V14.01,2013-06-22 03:49:00,
2013-06-21 23:54:00,72.1,60.2,30.03,WSW,248,0.0,0.0,66,0.00,,-RA,0.00,VWS V14.01,2013-06-22 03:54:00,
2013-06-21 23:59:00,72.1,60.2,30.03,West,270,3.1,3.1,66,0.00,,-RA,0.00,VWS V14.01,2013-06-22 03:59:00,